Terminal Aerodrome Forecast
Issued by NWS Mt. Holly, NJ

Home | Current Version | Previous Version | Text Only | Print | Product List | Glossary On
Versions: 1 2 3 4 5 6 7 8 9 10 11 12 13 14 15 16 17 18 19 20 21 22 23 24 25 26 27 28 29 30 31 32
000
FTUS41 KPHI 282100 AAB
TAFPHL
TAF AMD
KPHL 282144Z 2822/2924 27014G24KT P6SM SCT050 BKN100
     FM282300 29012G20KT P6SM SCT045 BKN120
      TEMPO 2823/2901 -SHRA OVC045
     FM290200 30012KT P6SM SCT045 BKN120
     FM290400 30008KT P6SM SCT200
     FM291500 29008KT P6SM SCT050=

USA.gov is the U.S. government's official web portal to all federal, state and local government web resources and services.